createdAt,value
2018-03-07T00:02:28.356Z,92.70
2018-03-07T00:04:57.715Z,92.50
2018-03-07T00:07:25.358Z,92.50
2018-03-07T00:09:52.980Z,92.50
2018-03-07T00:12:20.636Z,92.50
2018-03-07T00:14:48.298Z,92.50
2018-03-07T00:17:16.025Z,92.40
2018-03-07T00:19:43.663Z,92.40
2018-03-07T00:22:14.182Z,92.50
2018-03-07T00:24:41.852Z,92.50
2018-03-07T00:27:09.532Z,92.50
2018-03-07T00:29:37.169Z,92.50
2018-03-07T00:32:04.864Z,92.40
2018-03-07T00:34:32.491Z,92.40
2018-03-07T00:37:00.120Z,92.30
2018-03-07T00:39:28.572Z,92.40
2018-03-07T00:41:56.284Z,92.40
2018-03-07T00:44:23.948Z,92.40
2018-03-07T00:46:52.721Z,92.40
2018-03-07T00:49:20.449Z,92.40
2018-03-07T00:51:48.162Z,92.30
2018-03-07T00:54:15.788Z,92.40
2018-03-07T00:56:43.436Z,92.50
2018-03-07T00:59:11.113Z,92.60
2018-03-07T01:01:38.794Z,92.70
2018-03-07T01:04:06.413Z,92.70
2018-03-07T01:06:34.906Z,92.80
2018-03-07T01:09:04.599Z,92.70
2018-03-07T01:11:32.622Z,92.70
2018-03-07T01:14:00.319Z,92.70
2018-03-07T01:16:27.911Z,92.80
2018-03-07T01:18:56.348Z,92.80
2018-03-07T01:21:24.722Z,92.80
2018-03-07T01:23:53.378Z,92.70
2018-03-07T01:26:21.026Z,92.70
2018-03-07T01:28:48.868Z,92.80
2018-03-07T01:31:16.480Z,92.70
2018-03-07T01:33:44.160Z,92.70
2018-03-07T01:36:11.804Z,92.80
2018-03-07T01:38:40.272Z,92.70
2018-03-07T01:41:07.881Z,92.70
2018-03-07T01:43:35.537Z,93.00
2018-03-07T01:46:03.316Z,92.60
2018-03-07T01:48:30.941Z,92.60
2018-03-07T01:50:59.352Z,92.70
2018-03-07T01:53:27.004Z,92.70
2018-03-07T01:55:54.690Z,92.80
2018-03-07T01:58:22.389Z,92.80
2018-03-07T02:00:51.009Z,92.80
2018-03-07T02:03:18.636Z,92.80
2018-03-07T02:05:46.256Z,92.90
2018-03-07T02:08:13.873Z,92.90
2018-03-07T02:10:42.344Z,92.90
2018-03-07T02:13:10.720Z,92.90
2018-03-07T02:15:39.095Z,92.90
2018-03-07T02:18:07.510Z,92.90
2018-03-07T02:20:35.215Z,92.90
2018-03-07T02:23:02.891Z,92.90
2018-03-07T02:25:31.484Z,92.90
2018-03-07T02:27:59.941Z,93.00
2018-03-07T02:30:27.631Z,92.90
2018-03-07T02:32:56.093Z,92.90
2018-03-07T02:35:23.720Z,92.90
2018-03-07T02:37:51.393Z,92.90
2018-03-07T02:40:19.133Z,93.00
2018-03-07T02:42:46.782Z,92.90
2018-03-07T02:45:14.476Z,93.10
2018-03-07T02:47:42.109Z,93.30
2018-03-07T02:50:09.746Z,93.50
2018-03-07T02:52:37.493Z,93.70
2018-03-07T02:55:05.227Z,93.70
2018-03-07T02:57:32.882Z,93.80
2018-03-07T03:00:01.355Z,93.80
2018-03-07T03:02:28.972Z,93.70
2018-03-07T03:04:57.380Z,93.80
2018-03-07T03:07:25.001Z,93.70
2018-03-07T03:09:52.617Z,93.70
2018-03-07T03:12:20.271Z,93.50
2018-03-07T03:14:47.876Z,93.50
2018-03-07T03:17:15.576Z,93.50
2018-03-07T03:19:43.189Z,93.40
2018-03-07T03:22:10.803Z,93.30
2018-03-07T03:24:38.397Z,93.40
2018-03-07T03:27:06.107Z,93.30
2018-03-07T03:29:33.669Z,93.30
2018-03-07T03:32:01.553Z,93.20
2018-03-07T03:34:29.168Z,93.20
2018-03-07T03:36:56.754Z,93.20
2018-03-07T03:39:25.315Z,93.10
2018-03-07T03:41:52.930Z,93.00
2018-03-07T03:44:20.750Z,93.40
2018-03-07T03:46:49.116Z,93.10
2018-03-07T03:49:16.762Z,93.40
2018-03-07T03:51:44.376Z,93.10
2018-03-07T03:54:12.054Z,93.10
2018-03-07T03:56:39.700Z,93.10
2018-03-07T03:59:07.317Z,93.10
2018-03-07T04:01:35.066Z,93.20
2018-03-07T04:04:03.468Z,93.10
2018-03-07T04:06:31.117Z,93.10
2018-03-07T04:08:58.818Z,93.10
2018-03-07T04:11:26.436Z,93.10
2018-03-07T04:13:54.037Z,93.10
2018-03-07T04:16:21.676Z,93.10
2018-03-07T04:18:49.305Z,93.10
2018-03-07T04:21:16.903Z,93.10
2018-03-07T04:23:45.314Z,93.20
2018-03-07T04:26:12.929Z,93.20
2018-03-07T04:28:41.381Z,93.20
2018-03-07T04:31:08.969Z,93.20
2018-03-07T04:33:36.610Z,93.20
2018-03-07T04:36:04.228Z,93.30
2018-03-07T04:38:31.904Z,93.10
2018-03-07T04:40:59.523Z,93.00
2018-03-07T04:43:27.939Z,92.80
2018-03-07T04:45:55.597Z,92.80
2018-03-07T04:48:23.211Z,92.60
2018-03-07T04:50:50.834Z,92.90
2018-03-07T04:53:18.450Z,92.50
2018-03-07T04:55:46.878Z,92.70
2018-03-07T04:58:14.606Z,92.60
2018-03-07T05:00:42.223Z,92.60
2018-03-07T05:03:09.953Z,92.60
2018-03-07T05:05:37.574Z,92.50
2018-03-07T05:08:05.992Z,92.50
2018-03-07T05:10:33.652Z,92.50
2018-03-07T05:13:02.083Z,92.50
2018-03-07T05:15:30.496Z,92.50
2018-03-07T05:17:59.058Z,92.50
2018-03-07T05:20:27.458Z,92.60
2018-03-07T05:22:55.094Z,92.60
2018-03-07T05:25:23.461Z,92.50
2018-03-07T05:27:51.164Z,92.50
2018-03-07T05:30:18.843Z,92.40
2018-03-07T05:32:47.244Z,92.90
2018-03-07T05:35:16.357Z,93.00
2018-03-07T05:37:44.007Z,92.70
2018-03-07T05:40:11.662Z,93.20
2018-03-07T05:42:39.341Z,92.90
2018-03-07T05:45:07.049Z,92.90
2018-03-07T05:47:34.719Z,92.80
2018-03-07T05:50:02.587Z,92.80
2018-03-07T05:52:30.236Z,92.90
2018-03-07T05:54:58.011Z,93.00
2018-03-07T05:57:25.708Z,93.00
2018-03-07T05:59:53.381Z,93.20
2018-03-07T06:02:21.118Z,93.40
2018-03-07T06:04:48.763Z,93.70
2018-03-07T06:07:16.400Z,93.70
2018-03-07T06:09:44.092Z,93.60
2018-03-07T06:12:11.695Z,93.50
2018-03-07T06:14:40.185Z,93.20
2018-03-07T06:17:08.628Z,93.00
2018-03-07T06:19:36.584Z,93.00
2018-03-07T06:22:04.180Z,92.90
2018-03-07T06:24:31.847Z,93.10
2018-03-07T06:27:00.272Z,92.50
2018-03-07T06:29:27.886Z,92.50
2018-03-07T06:31:56.340Z,92.40
2018-03-07T06:34:24.011Z,92.30
2018-03-07T06:36:51.664Z,92.40
2018-03-07T06:39:19.294Z,92.40
2018-03-07T06:41:47.046Z,92.40
2018-03-07T06:44:14.656Z,92.30
2018-03-07T06:46:42.358Z,92.50
2018-03-07T06:49:10.018Z,92.00
2018-03-07T06:51:37.676Z,91.80
2018-03-07T06:54:05.342Z,91.80
2018-03-07T06:56:33.091Z,91.50
2018-03-07T06:59:01.556Z,91.30
2018-03-07T07:01:29.969Z,91.40
2018-03-07T07:03:57.698Z,91.30
2018-03-07T07:06:26.116Z,91.60
2018-03-07T07:08:53.825Z,91.50
2018-03-07T07:11:21.517Z,91.30
2018-03-07T07:13:49.944Z,91.30
2018-03-07T07:16:17.562Z,91.30
2018-03-07T07:18:45.209Z,91.10
2018-03-07T07:21:12.884Z,90.90
2018-03-07T07:23:40.617Z,90.40
2018-03-07T07:26:08.253Z,90.10
2018-03-07T07:28:35.881Z,89.90
2018-03-07T07:33:37.507Z,87.30
2018-03-07T07:36:05.154Z,85.90
2018-03-07T07:38:32.799Z,85.60
2018-03-07T07:41:01.323Z,84.90
2018-03-07T07:43:29.004Z,84.80
2018-03-07T07:45:57.455Z,84.60
2018-03-07T07:48:25.175Z,84.50
2018-03-07T07:50:53.070Z,83.80
2018-03-07T07:53:20.681Z,82.50
2018-03-07T07:55:48.365Z,81.80
2018-03-07T07:58:15.982Z,79.60
2018-03-07T08:00:44.410Z,76.50
2018-03-07T08:03:12.268Z,76.50
2018-03-07T08:05:39.978Z,77.30
2018-03-07T08:08:07.759Z,76.00
2018-03-07T08:10:36.281Z,77.00
2018-03-07T08:13:04.448Z,77.00
2018-03-07T08:15:32.108Z,77.50
2018-03-07T08:17:59.754Z,78.50
2018-03-07T08:20:27.379Z,79.20
2018-03-07T08:22:55.046Z,79.60
2018-03-07T08:25:22.711Z,76.90
2018-03-07T08:27:50.369Z,75.30
2018-03-07T08:30:18.000Z,74.50
2018-03-07T08:32:45.599Z,73.60
2018-03-07T08:35:13.988Z,65.70
2018-03-07T08:37:42.452Z,67.10
2018-03-07T08:40:11.076Z,67.70
2018-03-07T08:42:38.712Z,67.00
2018-03-07T08:45:06.354Z,61.90
2018-03-07T08:47:33.987Z,61.60
2018-03-07T08:50:01.686Z,60.00
2018-03-07T08:52:30.101Z,59.80
2018-03-07T08:54:57.823Z,59.80
2018-03-07T08:57:25.497Z,60.50
2018-03-07T08:59:53.879Z,62.60
2018-03-07T09:02:21.676Z,62.60
2018-03-07T09:04:49.296Z,59.80
2018-03-07T09:07:17.856Z,56.10
2018-03-07T09:09:45.485Z,56.10
2018-03-07T09:12:13.226Z,55.40
2018-03-07T09:14:40.864Z,54.90
2018-03-07T09:17:09.285Z,57.20
2018-03-07T09:19:37.159Z,57.20
2018-03-07T09:22:04.797Z,57.60
2018-03-07T09:24:32.594Z,59.40
2018-03-07T09:27:00.238Z,57.30
2018-03-07T09:29:27.879Z,54.70
2018-03-07T09:31:55.536Z,53.60
2018-03-07T09:34:24.083Z,52.50
2018-03-07T09:36:51.767Z,51.10
2018-03-07T09:39:19.619Z,50.50
2018-03-07T09:41:48.000Z,50.20
2018-03-07T09:44:16.429Z,49.00
2018-03-07T09:46:44.096Z,49.00
2018-03-07T09:49:11.758Z,47.50
2018-03-07T09:51:39.458Z,47.20
2018-03-07T09:54:07.166Z,45.30
2018-03-07T09:56:34.883Z,46.00
2018-03-07T09:59:02.456Z,45.00
2018-03-07T10:01:30.852Z,43.00
2018-03-07T10:03:58.484Z,42.90
2018-03-07T10:06:26.159Z,41.70
2018-03-07T10:08:54.527Z,40.40
2018-03-07T10:11:22.973Z,41.00
2018-03-07T10:13:50.568Z,40.90
2018-03-07T10:16:19.038Z,41.10
2018-03-07T10:18:46.686Z,41.00
2018-03-07T10:21:14.432Z,40.10
2018-03-07T10:23:42.044Z,39.80
2018-03-07T10:26:09.651Z,39.50
2018-03-07T10:28:40.065Z,39.70
2018-03-07T10:31:07.702Z,40.80
2018-03-07T10:33:35.373Z,42.00
2018-03-07T10:36:02.967Z,43.40
2018-03-07T10:38:30.626Z,45.20
2018-03-07T10:40:58.254Z,45.80
2018-03-07T10:43:25.866Z,46.30
2018-03-07T10:45:53.628Z,47.60
2018-03-07T10:48:21.374Z,49.40
2018-03-07T10:50:49.766Z,51.60
2018-03-07T10:53:17.440Z,51.60
2018-03-07T10:55:45.105Z,52.80
2018-03-07T10:58:13.505Z,50.70
2018-03-07T11:00:41.928Z,47.40
2018-03-07T11:03:09.657Z,46.70
2018-03-07T11:05:37.346Z,44.60
2018-03-07T11:08:04.996Z,44.70
2018-03-07T11:10:32.729Z,47.50
2018-03-07T11:13:00.465Z,50.20
2018-03-07T11:15:28.153Z,52.50
2018-03-07T11:17:56.519Z,55.00
2018-03-07T11:20:25.260Z,55.40
2018-03-07T11:22:52.881Z,55.30
2018-03-07T11:25:21.276Z,54.40
2018-03-07T11:27:49.042Z,54.40
2018-03-07T11:30:16.712Z,54.50
2018-03-07T11:32:44.368Z,55.00
2018-03-07T11:35:12.009Z,53.00
2018-03-07T11:37:39.866Z,51.40
2018-03-07T11:40:08.388Z,50.80
2018-03-07T11:42:36.806Z,52.00
2018-03-07T11:45:04.470Z,52.00
2018-03-07T11:47:32.145Z,52.30
2018-03-07T11:50:00.533Z,53.50
2018-03-07T11:52:28.162Z,53.50
2018-03-07T11:54:56.136Z,52.90
2018-03-07T11:57:23.760Z,51.50
2018-03-07T11:59:51.441Z,48.40
2018-03-07T12:02:19.898Z,46.50
2018-03-07T12:04:47.567Z,46.50
2018-03-07T12:07:15.233Z,47.20
2018-03-07T12:09:42.887Z,46.80
2018-03-07T12:12:10.552Z,46.30
2018-03-07T12:14:38.212Z,47.20
2018-03-07T12:17:05.816Z,47.00
2018-03-07T12:19:33.450Z,43.70
2018-03-07T12:22:01.065Z,42.00
2018-03-07T12:24:29.498Z,43.50
2018-03-07T12:26:57.228Z,43.50
2018-03-07T12:29:24.795Z,45.00
2018-03-07T12:31:52.431Z,47.10
2018-03-07T12:34:20.136Z,46.40
2018-03-07T12:36:47.805Z,47.50
2018-03-07T12:39:15.552Z,46.90
2018-03-07T12:41:43.257Z,42.80
2018-03-07T12:44:10.945Z,40.70
2018-03-07T12:46:38.586Z,37.70
2018-03-07T12:49:06.953Z,43.30
2018-03-07T12:51:34.584Z,43.20
2018-03-07T12:54:02.305Z,46.60
2018-03-07T12:56:29.969Z,48.00
2018-03-07T12:58:57.684Z,48.80
2018-03-07T13:01:26.068Z,48.90
2018-03-07T13:03:53.761Z,48.90
2018-03-07T13:06:21.463Z,50.20
2018-03-07T13:08:49.123Z,52.00
2018-03-07T13:11:16.871Z,53.40
2018-03-07T13:13:44.519Z,53.80
2018-03-07T13:16:12.170Z,54.20
2018-03-07T13:18:40.589Z,53.80
2018-03-07T13:21:08.231Z,53.80
2018-03-07T13:23:35.913Z,52.40
2018-03-07T13:26:03.659Z,51.70
2018-03-07T13:28:31.296Z,51.90
2018-03-07T13:30:59.676Z,51.90
2018-03-07T13:33:27.329Z,51.90
2018-03-07T13:35:55.786Z,52.40
2018-03-07T13:38:23.474Z,52.30
2018-03-07T13:40:51.986Z,54.00
2018-03-07T13:43:19.628Z,54.00
2018-03-07T13:45:47.312Z,54.70
2018-03-07T13:48:15.028Z,54.90
2018-03-07T13:50:42.755Z,54.60
2018-03-07T13:53:11.128Z,54.60
2018-03-07T13:55:38.795Z,54.60
2018-03-07T13:58:06.441Z,54.20
2018-03-07T14:00:34.083Z,54.40
2018-03-07T14:03:01.767Z,53.50
2018-03-07T14:05:29.965Z,52.80
2018-03-07T14:07:58.005Z,52.60
2018-03-07T14:10:25.633Z,52.70
2018-03-07T14:12:53.281Z,52.20
2018-03-07T14:15:21.818Z,50.00
2018-03-07T14:17:49.530Z,49.90
2018-03-07T14:20:19.700Z,49.20
2018-03-07T14:22:47.632Z,49.20
2018-03-07T14:25:16.073Z,49.00
2018-03-07T14:27:43.796Z,49.00
2018-03-07T14:30:11.434Z,48.80
2018-03-07T14:32:41.127Z,46.80
2018-03-07T14:35:10.002Z,46.80
2018-03-07T14:37:37.724Z,46.70
2018-03-07T14:40:05.367Z,47.60
2018-03-07T14:42:33.048Z,48.30
2018-03-07T14:45:00.691Z,48.40
2018-03-07T14:47:28.422Z,48.30
2018-03-07T14:49:56.366Z,48.10
2018-03-07T14:52:24.016Z,49.00
2018-03-07T14:54:51.689Z,48.50
2018-03-07T14:57:19.360Z,48.50
2018-03-07T14:59:47.100Z,48.00
2018-03-07T15:02:14.803Z,47.30
2018-03-07T15:04:42.516Z,47.10
2018-03-07T15:07:10.949Z,46.90
2018-03-07T15:09:38.681Z,46.90
2018-03-07T15:12:06.274Z,47.00
2018-03-07T15:14:33.935Z,46.80
2018-03-07T15:17:01.625Z,46.60
2018-03-07T15:19:30.146Z,46.40
2018-03-07T15:21:57.884Z,46.40
2018-03-07T15:24:26.470Z,47.30
2018-03-07T15:26:54.123Z,47.30
2018-03-07T15:29:22.568Z,47.00
2018-03-07T15:31:50.193Z,46.90
2018-03-07T15:34:18.002Z,47.30
2018-03-07T15:36:45.882Z,47.20
2018-03-07T15:39:13.490Z,47.60
2018-03-07T15:41:41.157Z,47.70
2018-03-07T15:44:08.757Z,47.60
2018-03-07T15:46:36.411Z,46.70
2018-03-07T15:49:04.086Z,47.00
2018-03-07T15:51:31.892Z,47.40
2018-03-07T15:53:59.560Z,48.00
2018-03-07T15:56:27.229Z,47.60
2018-03-07T15:58:54.914Z,47.80
2018-03-07T16:01:22.634Z,48.30
2018-03-07T16:03:50.427Z,48.20
2018-03-07T16:06:18.169Z,48.70
2018-03-07T16:08:45.811Z,48.60
2018-03-07T16:11:13.535Z,49.10
2018-03-07T16:13:41.319Z,49.40
2018-03-07T16:16:09.735Z,50.30
2018-03-07T16:18:37.419Z,49.70
2018-03-07T16:21:05.036Z,50.00
2018-03-07T16:23:32.707Z,50.40
2018-03-07T16:26:01.209Z,52.30
2018-03-07T16:28:28.819Z,52.30
2018-03-07T16:30:56.555Z,53.10
2018-03-07T16:33:24.246Z,53.50
2018-03-07T16:35:51.914Z,54.40
2018-03-07T16:38:20.307Z,55.40
2018-03-07T16:40:48.022Z,55.30
2018-03-07T16:43:15.661Z,55.90
2018-03-07T16:45:43.356Z,56.10
2018-03-07T16:48:10.980Z,56.30
2018-03-07T16:50:38.633Z,56.70
2018-03-07T16:53:06.329Z,56.80
2018-03-07T16:55:34.028Z,57.20
2018-03-07T16:58:01.979Z,57.70
2018-03-07T17:00:30.482Z,57.80
2018-03-07T17:02:58.188Z,57.80
2018-03-07T17:05:25.893Z,57.80
2018-03-07T17:07:54.290Z,57.80
2018-03-07T17:10:21.906Z,57.70
2018-03-07T17:12:49.600Z,57.70
2018-03-07T17:15:18.002Z,58.30
2018-03-07T17:17:45.677Z,58.30
2018-03-07T17:20:15.053Z,58.30
2018-03-07T17:22:42.755Z,58.50
2018-03-07T17:25:10.435Z,58.80
2018-03-07T17:27:38.092Z,59.00
2018-03-07T17:30:05.848Z,59.30
2018-03-07T17:32:33.449Z,59.40
2018-03-07T17:35:01.082Z,59.60
2018-03-07T17:37:29.502Z,60.10
2018-03-07T17:39:57.159Z,60.10
2018-03-07T17:42:26.612Z,60.30
2018-03-07T17:44:54.282Z,60.20
2018-03-07T17:47:21.967Z,62.00
2018-03-07T17:49:49.839Z,60.60
2018-03-07T17:52:17.552Z,60.80
2018-03-07T17:54:45.266Z,60.50
2018-03-07T17:57:13.661Z,60.70
2018-03-07T17:59:42.071Z,61.10
2018-03-07T18:02:09.892Z,61.00
2018-03-07T18:04:38.318Z,61.40
2018-03-07T18:07:05.953Z,61.30
2018-03-07T18:09:33.612Z,61.70
2018-03-07T18:12:01.270Z,61.60
2018-03-07T18:14:28.960Z,61.80
2018-03-07T18:16:56.630Z,62.20
2018-03-07T18:19:24.303Z,62.30
2018-03-07T18:21:51.950Z,62.30
2018-03-07T18:24:19.607Z,62.40
2018-03-07T18:26:47.273Z,62.60
2018-03-07T18:29:15.159Z,62.90
2018-03-07T18:31:57.010Z,63.00
2018-03-07T18:34:55.903Z,62.80
2018-03-07T18:37:28.670Z,63.00
2018-03-07T18:39:56.631Z,63.00
2018-03-07T18:42:25.153Z,63.30
2018-03-07T18:44:52.827Z,63.30
2018-03-07T18:47:30.084Z,63.30
2018-03-07T18:49:57.891Z,63.60
2018-03-07T18:52:31.073Z,63.60
2018-03-07T18:54:58.747Z,63.80
2018-03-07T18:57:27.741Z,63.70
2018-03-07T18:59:56.300Z,63.70
2018-03-07T19:02:23.948Z,64.00
2018-03-07T19:04:51.589Z,64.30
2018-03-07T19:07:22.727Z,64.50
2018-03-07T19:09:50.904Z,64.80
2018-03-07T19:12:18.586Z,64.50
2018-03-07T19:14:46.264Z,64.80
2018-03-07T19:17:16.896Z,64.90
2018-03-07T19:19:47.429Z,65.10
2018-03-07T19:22:16.266Z,65.00
2018-03-07T19:24:44.677Z,65.50
2018-03-07T19:27:13.605Z,65.40
2018-03-07T19:29:41.335Z,65.60
2018-03-07T19:32:09.030Z,66.30
2018-03-07T19:34:36.690Z,66.30
2018-03-07T19:37:04.505Z,66.20
2018-03-07T19:39:32.169Z,66.60
2018-03-07T19:41:59.812Z,66.30
2018-03-07T19:44:28.336Z,66.90
2018-03-07T19:46:56.007Z,66.90
2018-03-07T19:49:24.751Z,67.50
2018-03-07T19:51:52.382Z,67.50
2018-03-07T19:54:20.337Z,67.70
2018-03-07T19:56:48.018Z,68.10
2018-03-07T19:59:15.890Z,68.20
2018-03-07T20:01:44.307Z,68.70
2018-03-07T20:04:11.985Z,68.50
2018-03-07T20:06:39.771Z,68.70
2018-03-07T20:09:07.394Z,69.10
2018-03-07T20:11:35.137Z,69.10
2018-03-07T20:14:02.827Z,68.90
2018-03-07T20:16:30.675Z,69.30
2018-03-07T20:18:58.385Z,70.00
2018-03-07T20:21:26.108Z,71.10
2018-03-07T20:23:55.592Z,70.30
2018-03-07T20:26:24.226Z,70.80
2018-03-07T20:28:54.921Z,70.80
2018-03-07T20:31:22.626Z,70.90
2018-03-07T20:33:50.354Z,70.70
2018-03-07T20:36:18.301Z,70.80
2018-03-07T20:38:46.674Z,71.00
2018-03-07T20:41:14.426Z,71.00
2018-03-07T20:43:42.275Z,70.80
2018-03-07T20:46:10.049Z,71.00
2018-03-07T20:48:37.760Z,70.70
2018-03-07T20:51:06.016Z,70.70
2018-03-07T20:53:33.757Z,70.70
2018-03-07T20:56:02.210Z,70.70
2018-03-07T20:58:30.129Z,70.60
2018-03-07T21:00:58.618Z,70.70
2018-03-07T21:03:26.310Z,70.70
2018-03-07T21:05:55.366Z,70.50
2018-03-07T21:08:23.282Z,70.40
2018-03-07T21:10:51.698Z,70.10
2018-03-07T21:13:20.168Z,70.30
2018-03-07T21:15:49.452Z,70.40
2018-03-07T21:18:17.418Z,70.40
2018-03-07T21:20:45.951Z,70.90
2018-03-07T21:23:13.770Z,70.90
2018-03-07T21:25:41.418Z,71.10
2018-03-07T21:28:09.078Z,71.20
2018-03-07T21:30:36.716Z,71.50
2018-03-07T21:33:04.371Z,71.70
2018-03-07T21:35:32.072Z,71.90
2018-03-07T21:37:59.748Z,72.00
2018-03-07T21:40:27.406Z,72.20
2018-03-07T21:42:55.188Z,72.10
2018-03-07T21:45:23.566Z,72.20
2018-03-07T21:47:52.297Z,71.90
2018-03-07T21:50:19.983Z,71.90
2018-03-07T21:52:48.574Z,71.90
2018-03-07T21:55:16.338Z,72.00
2018-03-07T21:57:43.977Z,72.20
2018-03-07T22:00:11.594Z,72.50
2018-03-07T22:02:39.291Z,72.60
2018-03-07T22:05:06.908Z,73.00
2018-03-07T22:07:35.353Z,73.50
2018-03-07T22:10:03.842Z,73.70
2018-03-07T22:12:31.540Z,73.80
2018-03-07T22:14:59.191Z,74.10
2018-03-07T22:17:26.844Z,74.30
2018-03-07T22:19:54.700Z,74.30
2018-03-07T22:22:24.402Z,74.50
2018-03-07T22:24:52.153Z,74.50
2018-03-07T22:27:20.855Z,74.60
2018-03-07T22:29:48.551Z,75.00
2018-03-07T22:32:16.176Z,74.90
2018-03-07T22:34:43.818Z,75.00
2018-03-07T22:37:11.529Z,75.10
2018-03-07T22:39:39.227Z,75.00
2018-03-07T22:42:06.933Z,75.00
2018-03-07T22:44:34.638Z,74.80
2018-03-07T22:47:02.376Z,74.90
2018-03-07T22:49:30.137Z,74.70
2018-03-07T22:51:58.558Z,74.70
2018-03-07T22:54:26.156Z,74.70
2018-03-07T22:56:53.885Z,74.60
2018-03-07T22:59:22.319Z,74.40
2018-03-07T23:01:50.746Z,74.30
2018-03-07T23:04:18.645Z,74.20
2018-03-07T23:06:46.388Z,74.40
2018-03-07T23:09:14.056Z,74.70
2018-03-07T23:11:41.789Z,74.90
2018-03-07T23:14:09.518Z,75.20
2018-03-07T23:16:38.132Z,75.90
2018-03-07T23:19:06.420Z,75.90
2018-03-07T23:21:34.172Z,75.80
2018-03-07T23:24:01.836Z,77.00
2018-03-07T23:26:29.690Z,77.10
2018-03-07T23:28:57.381Z,77.30
2018-03-07T23:31:25.033Z,77.40
2018-03-07T23:33:52.700Z,77.30
2018-03-07T23:36:20.345Z,77.60
2018-03-07T23:38:47.992Z,77.90
2018-03-07T23:41:16.510Z,78.20
2018-03-07T23:43:44.593Z,78.20
2018-03-07T23:46:12.226Z,78.30
2018-03-07T23:48:39.999Z,78.60
2018-03-07T23:51:07.643Z,78.70
2018-03-07T23:53:35.405Z,78.90
2018-03-07T23:56:03.098Z,78.90
2018-03-07T23:58:30.742Z,79.10
